• Join FlightAware (Why Join?)
  • Login
  • US Flag 
11:01AM EDT


 

Airport Tracker/Info


-or-


 

Live Flight TrackerFlight Track Log ✈ SWA2502 ✈ 06-May-2013 ✈ KLAX - KSMF

Flight Track Log - Related Links

Times and Time Zones

All times are in EDT time to prevent confusion due to time zone crossing. See the SWA2502 flight status page for this flight to view local times or setup timezone preferences in your user account.

Time Position Orientation Groundspeed Altitude Reporting Facility
EDT Latitude Longitude Course Direction KTS MPH feet Rate Location/Type
04:21PM 33.9428 -118.4836 267° West 195 224 2,400  Level Los Angeles Center
04:22PM 33.9383 -118.5708 267° West 241 277 5,800 2,160 Climbing Los Angeles Center
04:24PM 33.9817 -118.6904 328° Northwest  Level FlightAware Approximate
04:24PM 34.0275 -118.7081 328° Northwest 287 330 9,100  Level Los Angeles Center
04:26PM 34.1406 -118.6297 22° Northeast  Level FlightAware Approximate
04:26PM 34.1825 -118.6725 22° Northeast 302 348 11,900  Level Los Angeles Center
04:27PM 34.2678 -118.6858 353° North 307 353 15,000 2,580 Climbing Los Angeles Center
04:28PM 34.3567 -118.6986 353° North 316 364 17,300 1,800 Climbing Los Angeles Center
04:30PM 34.5669 -118.7408 351° North 396 456 20,600 1,680 Climbing Los Angeles Center
04:31PM 34.6889 -118.8056 336° Northwest 402 463 22,600 1,860 Climbing Los Angeles Center
04:33PM 34.8181 -118.8694 338° Northwest 416 479 24,900 1,740 Climbing Los Angeles Center
04:34PM 34.9206 -118.9150 340° North 420 483 26,600 1,440 Climbing Los Angeles Center
04:35PM 35.1228 -119.0042 340° North 430 495 28,900 1,320 Climbing Oakland Center
04:36PM 35.1681 -119.0256 339° North 435 501 29,400 1,140 Climbing Los Angeles Center
04:37PM 35.2847 -119.0767 340° North 446 513 30,600 1,140 Climbing Los Angeles Center
04:38PM 35.4000 -119.1294 340° North 445 512 31,800 960 Climbing Los Angeles Center
04:39PM 35.5792 -119.2106 340° North 438 504 33,200 840 Climbing Oakland Center
04:40PM 35.6936 -119.2628 340° North 440 506 34,100 660 Climbing Oakland Center
04:41PM 35.8094 -119.3153 340° North 445 512 34,600 600 Climbing Oakland Center
04:42PM 35.9492 -119.3800 339° North 449 517 35,400 540 Climbing Oakland Center
04:44PM 36.1028 -119.4717 334° Northwest 436 502 36,000 240 Climbing Los Angeles Center
04:44PM 36.1633 -119.5106 333° Northwest 424 488 35,900  Descending Oakland Center
04:46PM 36.2686 -119.5778 333° Northwest 426 490 36,000  Climbing Oakland Center
04:47PM 36.3733 -119.6458 332° Northwest 427 491 36,000  Level Oakland Center
04:48PM 36.4792 -119.7164 332° Northwest 433 498 36,000  Level Oakland Center
04:49PM 36.5864 -119.7883 332° Northwest 438 504 36,000  Level Oakland Center
04:51PM 36.8028 -119.9325 332° Northwest 442 509 36,000  Level Oakland Center
04:52PM 36.9336 -120.0211 332° Northwest 447 514 36,000 -1,740 Level Oakland Center
04:54PM 37.1411 -120.1614 332° Northwest 463 533 30,700 -2,400 Descending Oakland Center
04:56PM 37.2996 -120.3072 324° Northwest  Level FlightAware Approximate
04:57PM 37.4719 -120.3942 324° Northwest 407 468 23,800  Level Oakland Center
04:57PM 37.5000 -120.4333 312° West 394 453 23,500 -960 Descending Northern Cal TRACON
04:59PM 37.6436 -120.5681 323° Northwest 396 456 21,900 -960 Descending Oakland Center
05:00PM 37.7322 -120.6567 322° Northwest 403 464 21,000 -960 Descending Oakland Center
05:01PM 37.8225 -120.7481 321° Northwest 411 473 20,000 -540 Descending Oakland Center
05:02PM 37.9125 -120.8389 321° Northwest 414 476 20,000 -960 Level Oakland Center
05:04PM 38.0958 -121.0308 321° Northwest 426 490 17,200 -2,040 Descending Oakland Center
05:05PM 38.1714 -121.1467 310° West 423 487 13,900 -2,700 Descending Oakland Center
05:06PM 38.2458 -121.2569 311° West 410 472 11,800 -2,040 Descending Oakland Center
05:07PM 38.3100 -121.3528 310° West 358 412 9,800 -2,040 Descending Oakland Center
05:09PM 38.4461 -121.5078 318° Northwest 292 336 5,700 -1,860 Descending Oakland Center
05:10PM 38.5081 -121.5656 324° Northwest 279 321 4,200 -1,560 Descending Oakland Center
05:11PM 38.5500 -121.5833 342° North 225 259 2,800 -1,200 Descending Northern Cal TRACON
05:13PM 38.6556 -121.5814 North 153 176 600 -1,020 Descending Oakland Center
05:15PM 38.6833 -121.5833 46° Northeast  Level FlightAware Approximate
05:22PM 38.6954 -121.5908 46° Northeast  Level Estimated
05:23PM 38.6954 -121.5908 46° Northeast  Level Estimated
05:24PM 38.6954 -121.5908 46° Northeast  Level Estimated